createdAt,value
2023-12-20T00:01:08.802Z,0.52
2023-12-20T00:03:41.858Z,0.50
2023-12-20T00:06:10.300Z,0.60
2023-12-20T00:08:37.180Z,0.60
2023-12-20T00:11:03.896Z,0.50
2023-12-20T00:13:30.472Z,0.70
2023-12-20T00:15:57.109Z,0.60
2023-12-20T00:18:24.616Z,0.50
2023-12-20T00:20:51.223Z,0.60
2023-12-20T00:23:17.895Z,0.50
2023-12-20T00:25:44.531Z,0.60
2023-12-20T00:28:11.200Z,1.23
2023-12-20T00:30:37.925Z,2.92
2023-12-20T00:33:04.900Z,0.53
2023-12-20T00:35:31.507Z,0.50
2023-12-20T00:37:59.932Z,0.63
2023-12-20T00:40:26.820Z,0.50
2023-12-20T00:42:53.618Z,0.55
2023-12-20T00:45:20.283Z,0.50
2023-12-20T00:47:47.129Z,0.50
2023-12-20T00:50:14.193Z,0.50
2023-12-20T00:52:40.922Z,0.45
2023-12-20T00:55:07.879Z,0.40
2023-12-20T00:57:35.131Z,1.27
2023-12-20T01:00:02.030Z,1.20
2023-12-20T01:02:28.549Z,0.57
2023-12-20T01:04:55.075Z,0.45
2023-12-20T01:07:21.850Z,0.50
2023-12-20T01:09:48.561Z,0.93
2023-12-20T01:12:15.239Z,0.70
2023-12-20T01:14:41.876Z,0.60
2023-12-20T01:17:08.426Z,0.50
2023-12-20T01:19:35.100Z,2.25
2023-12-20T01:22:01.844Z,0.50
2023-12-20T01:24:28.404Z,0.60
2023-12-20T01:26:55.020Z,0.50
2023-12-20T01:29:21.637Z,0.50
2023-12-20T01:31:48.224Z,0.50
2023-12-20T01:34:15.030Z,0.90
2023-12-20T01:36:41.830Z,1.52
2023-12-20T01:39:16.667Z,0.60
2023-12-20T01:41:51.821Z,0.50
2023-12-20T01:44:18.577Z,0.50
2023-12-20T01:46:45.359Z,0.50
2023-12-20T01:49:12.416Z,2.40
2023-12-20T01:51:39.792Z,2.17
2023-12-20T01:54:06.608Z,2.75
2023-12-20T01:56:33.821Z,0.70
2023-12-20T01:59:01.740Z,0.50
2023-12-20T02:01:29.637Z,0.50
2023-12-20T02:03:57.822Z,0.68
2023-12-20T02:06:25.756Z,0.88
2023-12-20T02:08:52.497Z,0.50
2023-12-20T02:11:19.218Z,0.80
2023-12-20T02:13:45.891Z,0.50
2023-12-20T02:16:12.470Z,1.63
2023-12-20T02:18:40.367Z,1.38
2023-12-20T02:21:07.214Z,0.65
2023-12-20T02:23:33.768Z,0.40
2023-12-20T02:26:00.357Z,0.38
2023-12-20T02:28:27.958Z,0.85
2023-12-20T02:30:54.694Z,0.50
2023-12-20T02:33:21.291Z,1.33
2023-12-20T02:35:48.690Z,2.97
2023-12-20T02:38:15.265Z,0.60
2023-12-20T02:40:41.909Z,0.82
2023-12-20T02:43:16.264Z,0.50
2023-12-20T02:45:43.082Z,0.60
2023-12-20T02:48:09.685Z,0.60
2023-12-20T02:50:36.311Z,2.95
2023-12-20T02:53:02.973Z,4.07
2023-12-20T02:55:29.554Z,0.60
2023-12-20T02:57:56.352Z,0.50
2023-12-20T03:00:22.993Z,0.40
2023-12-20T03:02:49.583Z,0.65
2023-12-20T03:05:16.232Z,0.60
2023-12-20T03:07:43.084Z,0.40
2023-12-20T03:10:16.314Z,0.50
2023-12-20T03:12:47.793Z,0.50
2023-12-20T03:15:14.448Z,0.68
2023-12-20T03:17:41.035Z,0.50
2023-12-20T03:20:08.586Z,0.50
2023-12-20T03:22:35.509Z,1.98
2023-12-20T03:25:02.149Z,1.27
2023-12-20T03:27:28.746Z,0.50
2023-12-20T03:29:55.364Z,0.50
2023-12-20T03:32:21.936Z,0.60
2023-12-20T03:34:49.702Z,0.55
2023-12-20T03:37:16.545Z,0.50
2023-12-20T03:39:43.222Z,0.50
2023-12-20T03:42:09.898Z,0.80
2023-12-20T03:44:39.833Z,0.77
2023-12-20T03:47:07.609Z,0.47
2023-12-20T03:49:34.440Z,0.50
2023-12-20T03:52:01.136Z,0.50
2023-12-20T03:54:27.713Z,0.70
2023-12-20T03:56:54.280Z,0.50
2023-12-20T03:59:21.272Z,9.82
2023-12-20T04:01:47.967Z,14.77
2023-12-20T04:04:15.122Z,12.23
2023-12-20T04:06:42.104Z,11.48
2023-12-20T04:09:10.383Z,15.30
2023-12-20T04:11:38.016Z,14.05
2023-12-20T04:14:06.237Z,13.93
2023-12-20T04:16:32.820Z,13.00
2023-12-20T04:18:59.749Z,16.52
2023-12-20T04:21:26.400Z,13.57
2023-12-20T04:23:53.016Z,18.50
2023-12-20T04:26:19.583Z,17.13
2023-12-20T04:28:46.247Z,12.85
2023-12-20T04:31:13.041Z,12.93
2023-12-20T04:33:39.713Z,10.95
2023-12-20T04:36:06.404Z,23.65
2023-12-20T04:38:33.015Z,20.90
2023-12-20T04:40:59.633Z,17.73
2023-12-20T04:43:26.200Z,16.58
2023-12-20T04:45:52.985Z,11.70
2023-12-20T04:48:22.147Z,13.27
2023-12-20T04:50:48.740Z,13.20
2023-12-20T04:53:15.309Z,16.85
2023-12-20T04:55:41.879Z,16.70
2023-12-20T04:58:08.431Z,13.48
2023-12-20T05:00:35.105Z,11.00
2023-12-20T05:03:01.733Z,6.73
2023-12-20T05:05:28.422Z,11.95
2023-12-20T05:07:55.092Z,8.05
2023-12-20T05:10:21.743Z,14.25
2023-12-20T05:12:48.420Z,11.52
2023-12-20T05:15:14.953Z,13.40
2023-12-20T05:17:42.071Z,8.35
2023-12-20T05:20:09.364Z,9.85
2023-12-20T05:22:35.903Z,13.18
2023-12-20T05:25:02.560Z,11.20
2023-12-20T05:27:29.183Z,13.30
2023-12-20T05:29:58.845Z,8.57
2023-12-20T05:32:26.496Z,14.02
2023-12-20T05:34:53.331Z,12.18
2023-12-20T05:37:20.107Z,8.48
2023-12-20T05:39:46.917Z,16.27
2023-12-20T05:42:13.609Z,9.40
2023-12-20T05:44:40.291Z,13.18
2023-12-20T05:47:06.946Z,13.30
2023-12-20T05:49:33.589Z,9.13
2023-12-20T05:52:00.311Z,8.97
2023-12-20T05:54:26.872Z,10.90
2023-12-20T05:56:53.423Z,21.60
2023-12-20T05:59:19.968Z,17.13
2023-12-20T06:01:46.616Z,16.92
2023-12-20T06:04:13.416Z,5.23
2023-12-20T06:06:43.881Z,9.05
2023-12-20T06:09:10.984Z,9.45
2023-12-20T06:11:37.574Z,20.77
2023-12-20T06:14:04.184Z,9.15
2023-12-20T06:16:30.821Z,7.17
2023-12-20T06:18:57.530Z,12.20
2023-12-20T06:21:24.123Z,11.80
2023-12-20T06:23:50.718Z,10.73
2023-12-20T06:26:17.258Z,10.40
2023-12-20T06:28:43.980Z,7.93
2023-12-20T06:31:10.696Z,7.57
2023-12-20T06:33:37.301Z,9.60
2023-12-20T06:36:04.283Z,10.13
2023-12-20T06:38:30.890Z,12.52
2023-12-20T06:40:58.680Z,17.17
2023-12-20T06:43:37.497Z,12.03
2023-12-20T06:46:10.717Z,9.02
2023-12-20T06:48:37.265Z,10.60
2023-12-20T06:51:03.890Z,8.32
2023-12-20T06:53:30.863Z,10.10
2023-12-20T06:55:57.781Z,11.67
2023-12-20T06:58:24.597Z,8.63
2023-12-20T07:00:52.781Z,22.92
2023-12-20T07:03:19.445Z,10.05
2023-12-20T07:05:46.090Z,11.77
2023-12-20T07:08:15.377Z,14.30
2023-12-20T07:10:42.653Z,12.25
2023-12-20T07:13:09.462Z,12.23
2023-12-20T07:15:36.977Z,10.90
2023-12-20T07:18:03.858Z,10.77
2023-12-20T07:20:30.537Z,17.40
2023-12-20T07:22:57.099Z,14.68
2023-12-20T07:25:23.772Z,8.48
2023-12-20T07:27:50.653Z,11.85
2023-12-20T07:30:17.653Z,10.40
2023-12-20T07:32:44.366Z,6.60
2023-12-20T07:35:11.302Z,10.10
2023-12-20T07:37:37.899Z,14.43
2023-12-20T07:40:06.301Z,8.40
2023-12-20T07:42:32.888Z,11.45
2023-12-20T07:45:00.018Z,12.60
2023-12-20T07:47:26.701Z,11.27
2023-12-20T07:49:53.749Z,12.60
2023-12-20T07:52:20.614Z,17.05
2023-12-20T07:54:47.471Z,10.27
2023-12-20T07:57:14.157Z,7.63
2023-12-20T07:59:40.802Z,11.30
2023-12-20T08:02:07.887Z,12.57
2023-12-20T08:04:34.635Z,8.38
2023-12-20T08:07:01.550Z,8.75
2023-12-20T08:09:28.294Z,9.80
2023-12-20T08:11:54.836Z,10.05
2023-12-20T08:14:21.402Z,7.93
2023-12-20T08:16:48.029Z,9.40
2023-12-20T08:19:15.030Z,17.75
2023-12-20T08:21:41.776Z,8.23
2023-12-20T08:24:09.310Z,14.10
2023-12-20T08:26:36.000Z,13.88
2023-12-20T08:29:02.956Z,11.75
2023-12-20T08:31:30.072Z,10.48
2023-12-20T08:33:57.262Z,11.83
2023-12-20T08:36:24.760Z,9.05
2023-12-20T08:38:52.134Z,6.93
2023-12-20T08:41:19.066Z,12.88
2023-12-20T08:43:45.787Z,9.85
2023-12-20T08:46:13.176Z,7.87
2023-12-20T08:48:40.236Z,11.85
2023-12-20T08:51:10.574Z,12.80
2023-12-20T08:53:37.552Z,11.77
2023-12-20T08:56:04.508Z,12.55
2023-12-20T08:58:31.274Z,11.20
2023-12-20T09:00:59.042Z,11.82
2023-12-20T09:03:25.910Z,12.77
2023-12-20T09:05:52.487Z,11.60
2023-12-20T09:08:19.130Z,13.65
2023-12-20T09:10:45.938Z,9.73
2023-12-20T09:13:13.257Z,10.13
2023-12-20T09:15:39.954Z,16.25
2023-12-20T09:18:07.023Z,8.60
2023-12-20T09:20:34.796Z,17.73
2023-12-20T09:23:01.633Z,13.60
2023-12-20T09:25:28.628Z,13.93
2023-12-20T09:27:55.452Z,15.90
2023-12-20T09:30:27.018Z,18.58
2023-12-20T09:32:55.651Z,15.48
2023-12-20T09:35:23.354Z,8.67
2023-12-20T09:37:50.781Z,12.82
2023-12-20T09:40:20.873Z,18.23
2023-12-20T09:43:05.913Z,13.13
2023-12-20T09:45:33.699Z,9.55
2023-12-20T09:48:01.213Z,8.43
2023-12-20T09:50:28.768Z,8.48
2023-12-20T09:53:00.510Z,9.38
2023-12-20T09:55:29.261Z,11.77
2023-12-20T09:57:56.110Z,12.93
2023-12-20T10:00:22.832Z,13.50
2023-12-20T10:03:00.423Z,8.20
2023-12-20T10:05:32.380Z,5.70
2023-12-20T10:08:00.501Z,14.90
2023-12-20T10:10:35.157Z,20.80
2023-12-20T10:13:11.491Z,11.97
2023-12-20T10:15:43.378Z,8.88
2023-12-20T10:18:12.028Z,8.80
2023-12-20T10:20:38.884Z,13.30
2023-12-20T10:23:05.620Z,14.18
2023-12-20T10:25:33.429Z,10.23
2023-12-20T10:28:10.545Z,14.73
2023-12-20T10:30:37.351Z,11.50
2023-12-20T10:33:04.391Z,9.40
2023-12-20T10:35:31.085Z,10.45
2023-12-20T10:37:57.926Z,11.77
2023-12-20T10:40:26.213Z,11.80
2023-12-20T10:42:53.465Z,9.85
2023-12-20T10:45:20.117Z,9.13
2023-12-20T10:47:48.423Z,9.60
2023-12-20T10:50:16.403Z,12.23
2023-12-20T10:52:43.908Z,7.93
2023-12-20T10:55:12.329Z,14.70
2023-12-20T10:57:40.643Z,10.02
2023-12-20T11:00:13.668Z,5.75
2023-12-20T11:02:41.681Z,13.93
2023-12-20T11:05:24.073Z,15.93
2023-12-20T11:07:58.221Z,8.85
2023-12-20T11:10:30.604Z,10.25
2023-12-20T11:13:13.655Z,14.70
2023-12-20T11:15:41.268Z,16.33
2023-12-20T11:18:07.991Z,15.55
2023-12-20T11:20:39.549Z,13.32
2023-12-20T11:23:07.499Z,13.57
2023-12-20T11:25:54.005Z,15.88
2023-12-20T11:28:25.499Z,10.37
2023-12-20T11:30:53.195Z,11.38
2023-12-20T11:33:30.398Z,10.55
2023-12-20T11:35:58.630Z,10.82
2023-12-20T11:38:25.385Z,12.70
2023-12-20T11:40:55.749Z,7.10
2023-12-20T11:43:38.843Z,10.88
2023-12-20T11:46:13.610Z,7.57
2023-12-20T11:48:45.464Z,11.90
2023-12-20T11:51:13.831Z,9.38
2023-12-20T11:53:41.850Z,13.67
2023-12-20T11:56:08.888Z,16.60
2023-12-20T11:58:36.985Z,10.00
2023-12-20T12:01:05.776Z,13.02
2023-12-20T12:03:32.680Z,12.63
2023-12-20T12:05:59.548Z,13.23
2023-12-20T12:08:26.257Z,10.40
2023-12-20T12:10:53.053Z,13.93
2023-12-20T12:13:19.732Z,10.80
2023-12-20T12:15:46.583Z,10.20
2023-12-20T12:18:17.378Z,11.77
2023-12-20T12:20:44.197Z,10.70
2023-12-20T12:23:10.992Z,12.45
2023-12-20T12:25:42.264Z,11.13
2023-12-20T12:28:10.678Z,12.90
2023-12-20T12:30:42.852Z,12.83
2023-12-20T12:33:14.027Z,8.93
2023-12-20T12:35:41.739Z,10.18
2023-12-20T12:38:09.898Z,14.13
2023-12-20T12:40:37.793Z,10.00
2023-12-20T12:43:05.623Z,11.37
2023-12-20T12:45:32.432Z,10.60
2023-12-20T12:47:59.170Z,8.52
2023-12-20T12:50:26.181Z,12.70
2023-12-20T12:52:52.931Z,14.90
2023-12-20T12:55:19.575Z,11.67
2023-12-20T12:57:46.634Z,8.23
2023-12-20T13:00:13.725Z,9.48
2023-12-20T13:02:43.300Z,7.25
2023-12-20T13:05:10.572Z,10.70
2023-12-20T13:07:38.875Z,9.30
2023-12-20T13:10:07.024Z,11.32
2023-12-20T13:12:34.024Z,16.92
2023-12-20T13:15:00.666Z,9.80
2023-12-20T13:17:29.462Z,16.52
2023-12-20T13:19:57.177Z,10.77
2023-12-20T13:22:23.902Z,10.77
2023-12-20T13:24:50.627Z,7.82
2023-12-20T13:27:17.239Z,8.85
2023-12-20T13:29:43.880Z,5.72
2023-12-20T13:32:10.694Z,7.90
2023-12-20T13:34:37.537Z,9.52
2023-12-20T13:37:05.808Z,13.75
2023-12-20T13:39:32.728Z,14.27
2023-12-20T13:42:01.207Z,13.50
2023-12-20T13:44:28.633Z,11.70
2023-12-20T13:46:55.292Z,11.27
2023-12-20T13:49:22.492Z,7.65
2023-12-20T13:51:49.717Z,12.02
2023-12-20T13:54:17.958Z,11.40
2023-12-20T13:56:56.045Z,13.87
2023-12-20T13:59:29.603Z,13.75
2023-12-20T14:01:58.345Z,19.08
2023-12-20T14:04:40.944Z,6.95
2023-12-20T14:07:12.492Z,11.50
2023-12-20T14:09:39.860Z,13.03
2023-12-20T14:12:06.848Z,14.52
2023-12-20T14:14:33.493Z,13.38
2023-12-20T14:17:00.266Z,10.15
2023-12-20T14:19:27.015Z,11.32
2023-12-20T14:21:53.650Z,9.30
2023-12-20T14:24:20.271Z,7.15
2023-12-20T14:26:46.926Z,9.20
2023-12-20T14:29:13.661Z,8.85
2023-12-20T14:31:42.031Z,9.20
2023-12-20T14:34:09.674Z,10.10
2023-12-20T14:36:36.678Z,10.70
2023-12-20T14:39:04.646Z,10.27
2023-12-20T14:41:32.777Z,9.77
2023-12-20T14:44:08.932Z,10.07
2023-12-20T14:46:35.495Z,9.57
2023-12-20T14:49:06.056Z,10.48
2023-12-20T14:51:37.001Z,9.60
2023-12-20T14:54:03.827Z,5.15
2023-12-20T14:56:30.462Z,9.20
2023-12-20T14:58:59.111Z,9.03
2023-12-20T15:01:27.253Z,8.80
2023-12-20T15:03:54.230Z,10.60
2023-12-20T15:06:21.794Z,11.48
2023-12-20T15:08:48.506Z,8.63
2023-12-20T15:11:15.237Z,10.80
2023-12-20T15:13:42.032Z,8.98
2023-12-20T15:16:08.982Z,8.63
2023-12-20T15:18:35.598Z,11.82
2023-12-20T15:21:02.298Z,12.00
2023-12-20T15:23:30.568Z,9.37
2023-12-20T15:25:57.369Z,10.10
2023-12-20T15:28:25.210Z,14.02
2023-12-20T15:30:52.009Z,10.90
2023-12-20T15:33:18.803Z,13.48
2023-12-20T15:35:45.549Z,13.20
2023-12-20T15:38:12.458Z,10.13
2023-12-20T15:40:39.414Z,9.13
2023-12-20T15:43:06.637Z,9.50
2023-12-20T15:45:33.431Z,9.52
2023-12-20T15:48:00.418Z,11.40
2023-12-20T15:50:27.454Z,9.82
2023-12-20T15:52:54.452Z,5.75
2023-12-20T15:55:21.227Z,11.40
2023-12-20T15:57:52.740Z,11.77
2023-12-20T16:00:22.097Z,13.60
2023-12-20T16:02:49.056Z,13.88
2023-12-20T16:05:15.980Z,6.05
2023-12-20T16:07:43.982Z,12.63
2023-12-20T16:10:11.363Z,8.52
2023-12-20T16:12:38.177Z,11.00
2023-12-20T16:15:05.386Z,12.85
2023-12-20T16:17:32.151Z,10.65
2023-12-20T16:19:59.091Z,7.25
2023-12-20T16:22:27.842Z,7.65
2023-12-20T16:24:55.942Z,8.83
2023-12-20T16:29:51.371Z,7.43
2023-12-20T16:32:19.560Z,9.25
2023-12-20T16:34:47.499Z,14.18
2023-12-20T16:37:14.252Z,9.10
2023-12-20T16:39:41.087Z,13.73
2023-12-20T16:42:07.825Z,9.88
2023-12-20T16:44:35.284Z,10.70
2023-12-20T16:47:05.510Z,8.00
2023-12-20T16:49:34.637Z,16.27
2023-12-20T16:52:04.021Z,8.90
2023-12-20T16:54:32.228Z,4.32
2023-12-20T16:56:59.733Z,7.07
2023-12-20T16:59:27.640Z,12.45
2023-12-20T17:01:55.494Z,7.33
2023-12-20T17:04:24.400Z,9.88
2023-12-20T17:06:51.223Z,5.40
2023-12-20T17:09:17.960Z,8.07
2023-12-20T17:11:45.129Z,9.55
2023-12-20T17:14:14.069Z,7.97
2023-12-20T17:16:43.342Z,9.80
2023-12-20T17:19:10.452Z,10.57
2023-12-20T17:21:37.510Z,9.90
2023-12-20T17:24:04.710Z,8.98
2023-12-20T17:26:31.375Z,6.15
2023-12-20T17:28:58.155Z,8.65
2023-12-20T17:31:24.757Z,8.17
2023-12-20T17:33:51.601Z,8.73
2023-12-20T17:36:18.260Z,7.57
2023-12-20T17:38:44.862Z,7.60
2023-12-20T17:41:11.965Z,7.43
2023-12-20T17:43:38.613Z,10.97
2023-12-20T17:46:06.541Z,4.35
2023-12-20T17:48:33.936Z,4.57
2023-12-20T17:51:00.736Z,13.65
2023-12-20T17:53:28.609Z,13.70
2023-12-20T17:55:57.610Z,7.70
2023-12-20T17:58:24.518Z,8.63
2023-12-20T18:00:51.295Z,11.02
2023-12-20T18:03:19.279Z,10.35
2023-12-20T18:05:46.329Z,7.45
2023-12-20T18:08:14.488Z,11.90
2023-12-20T18:10:41.911Z,8.23
2023-12-20T18:13:08.588Z,8.18
2023-12-20T18:15:39.791Z,8.23
2023-12-20T18:18:10.586Z,6.30
2023-12-20T18:20:37.388Z,8.00
2023-12-20T18:23:07.182Z,9.65
2023-12-20T18:25:33.992Z,7.90
2023-12-20T18:28:04.272Z,6.57
2023-12-20T18:30:30.948Z,7.15
2023-12-20T18:32:57.586Z,6.50
2023-12-20T18:35:24.203Z,5.30
2023-12-20T18:37:51.027Z,7.22
2023-12-20T18:40:20.986Z,5.07
2023-12-20T18:42:47.610Z,8.57
2023-12-20T18:45:14.613Z,7.07
2023-12-20T18:47:41.441Z,7.03
2023-12-20T18:50:10.022Z,8.15
2023-12-20T18:52:37.582Z,5.97
2023-12-20T18:55:04.787Z,4.60
2023-12-20T18:57:31.770Z,9.30
2023-12-20T19:00:00.277Z,8.18
2023-12-20T19:02:32.117Z,5.18
2023-12-20T19:05:01.057Z,5.95
2023-12-20T19:07:27.896Z,10.10
2023-12-20T19:09:54.725Z,10.30
2023-12-20T19:12:21.566Z,6.07
2023-12-20T19:14:48.192Z,13.98
2023-12-20T19:17:14.785Z,10.07
2023-12-20T19:19:41.691Z,4.93
2023-12-20T19:22:08.753Z,12.83
2023-12-20T19:24:35.503Z,7.40
2023-12-20T19:27:02.528Z,15.50
2023-12-20T19:29:33.864Z,9.73
2023-12-20T19:32:01.554Z,8.32
2023-12-20T19:34:28.343Z,8.80
2023-12-20T19:36:55.220Z,8.55
2023-12-20T19:39:21.972Z,3.90
2023-12-20T19:41:48.654Z,6.88
2023-12-20T19:44:17.977Z,9.45
2023-12-20T19:46:44.841Z,13.33
2023-12-20T19:49:11.779Z,10.88
2023-12-20T19:51:38.588Z,8.05
2023-12-20T19:54:06.673Z,20.95
2023-12-20T19:56:33.352Z,11.35
2023-12-20T19:58:59.970Z,7.90
2023-12-20T20:01:26.778Z,9.52
2023-12-20T20:03:53.779Z,9.73
2023-12-20T20:06:22.282Z,9.60
2023-12-20T20:08:48.976Z,9.93
2023-12-20T20:11:26.135Z,10.20
2023-12-20T20:14:01.331Z,7.47
2023-12-20T20:16:28.087Z,13.40
2023-12-20T20:18:54.844Z,6.00
2023-12-20T20:21:21.652Z,7.93
2023-12-20T20:23:48.620Z,11.30
2023-12-20T20:26:15.316Z,10.20
2023-12-20T20:28:41.875Z,8.90
2023-12-20T20:31:09.875Z,4.57
2023-12-20T20:33:36.958Z,6.90
2023-12-20T20:36:08.130Z,9.87
2023-12-20T20:38:34.757Z,5.93
2023-12-20T20:41:01.672Z,12.93
2023-12-20T20:43:28.785Z,9.65
2023-12-20T20:45:55.604Z,7.22
2023-12-20T20:48:30.094Z,11.17
2023-12-20T20:51:01.255Z,9.65
2023-12-20T20:53:28.167Z,8.95
2023-12-20T20:55:55.645Z,5.80
2023-12-20T20:58:22.701Z,9.73
2023-12-20T21:00:50.010Z,13.17
2023-12-20T21:03:16.786Z,10.52
2023-12-20T21:05:43.600Z,7.20
2023-12-20T21:08:12.774Z,9.85
2023-12-20T21:10:41.860Z,9.00
2023-12-20T21:13:08.598Z,10.53
2023-12-20T21:15:35.417Z,12.18
2023-12-20T21:18:02.110Z,10.77
2023-12-20T21:20:28.803Z,9.90
2023-12-20T21:22:56.489Z,7.82
2023-12-20T21:25:23.530Z,8.03
2023-12-20T21:27:50.410Z,10.75
2023-12-20T21:30:17.318Z,10.77
2023-12-20T21:32:46.235Z,6.55
2023-12-20T21:35:13.012Z,8.77
2023-12-20T21:37:42.410Z,7.07
2023-12-20T21:40:09.456Z,13.05
2023-12-20T21:42:36.250Z,4.78
2023-12-20T21:45:03.407Z,7.05
2023-12-20T21:47:30.278Z,7.75
2023-12-20T21:49:57.358Z,5.93
2023-12-20T21:52:24.627Z,10.82
2023-12-20T21:54:51.422Z,10.52
2023-12-20T21:57:18.093Z,8.52
2023-12-20T21:59:44.787Z,8.82
2023-12-20T22:02:12.199Z,10.57
2023-12-20T22:04:38.974Z,13.50
2023-12-20T22:07:05.682Z,10.65
2023-12-20T22:09:32.349Z,15.23
2023-12-20T22:11:59.080Z,9.73
2023-12-20T22:14:27.035Z,10.10
2023-12-20T22:16:53.893Z,6.18
2023-12-20T22:19:20.742Z,5.22
2023-12-20T22:21:47.410Z,4.55
2023-12-20T22:24:14.060Z,15.00
2023-12-20T22:26:40.715Z,12.13
2023-12-20T22:29:07.329Z,8.82
2023-12-20T22:31:34.093Z,5.80
2023-12-20T22:34:01.375Z,6.38
2023-12-20T22:36:29.382Z,13.02
2023-12-20T22:38:57.877Z,10.73
2023-12-20T22:41:24.581Z,8.85
2023-12-20T22:43:51.308Z,12.85
2023-12-20T22:46:18.403Z,11.25
2023-12-20T22:48:45.441Z,9.07
2023-12-20T22:51:12.255Z,6.17
2023-12-20T22:53:38.892Z,8.15
2023-12-20T22:56:05.891Z,3.65
2023-12-20T22:58:32.625Z,7.28
2023-12-20T23:00:59.485Z,14.45
2023-12-20T23:03:27.619Z,9.87
2023-12-20T23:05:54.377Z,13.07
2023-12-20T23:08:21.175Z,5.40
2023-12-20T23:10:47.976Z,6.55
2023-12-20T23:13:15.350Z,7.43
2023-12-20T23:15:42.059Z,12.55
2023-12-20T23:18:09.079Z,8.30
2023-12-20T23:20:36.197Z,11.82
2023-12-20T23:23:03.955Z,8.32
2023-12-20T23:25:30.895Z,7.60
2023-12-20T23:27:57.755Z,14.18
2023-12-20T23:30:24.852Z,8.70
2023-12-20T23:32:51.741Z,8.20
2023-12-20T23:35:18.584Z,7.60
2023-12-20T23:37:45.712Z,4.88
2023-12-20T23:40:12.667Z,6.47
2023-12-20T23:42:39.391Z,8.07
2023-12-20T23:45:07.625Z,8.95
2023-12-20T23:47:34.225Z,7.20
2023-12-20T23:50:01.151Z,12.40
2023-12-20T23:52:27.901Z,14.95
2023-12-20T23:54:57.766Z,12.50
2023-12-20T23:57:24.961Z,14.55
2023-12-20T23:59:51.572Z,13.98
